Etusivu
METAR-TAF:

METAR-TAF

Lentoasemat :

Eagle River Union Airport

Eagle River, Wisconsin, Yhdysvallat

Leveyspiiri: 45-55-54N, Pituuspiiri: 089-16-09W, korkeus merenpinnasta: 501 m

Tämänhetkinen sää

Tämä raportti tehtiin 31 minuuttia sitten, kello 16.35 UTC
Tuuli 14 kn lännestä/luoteesta puuskistuen 19 kn:hen
Lämpötila 26°C
Kosteus 32%
Ilmanpaine 1009 hPa
Näkyvyys: 16.1 km
selkeää

METAR: KEGV 031635Z AUTO 29014G19KT 10SM CLR 26/08 A2979 RMK AO2 T02610076

Aika: 12:06 (17:06 UTC)


TAF: puuttuu

Säähavainnot ja -ennusteet yli 4000 lentoasemalta (METAR- ja TAF-raportit).

Käytössä olevat sääasemat on merkitty karttaan keltaisilla ja punaisilla pisteillä.

Aseta hiiri pisteen päälle nähdäksesi sääaseman nimen.

Klikkaa sitten nähdäksesi säähavainnot ja -ennusteet.

Kartan vaihtaminen: klikkaa mustalla rastilla varustettuja vihreitä pisteitä, niin voit zoomata sisään; viivalla varustettua vihreää pistettä, niin voit zoomata ulos tai vihreitä nuolia, niin pääset viereisille kartoille.


METAR-TAF: